Terminal Aerodrome Forecast
Issued by NWS Charleston, WV

Current Version | Previous Version | Graphics & Text | Print | Product List | Glossary On
Versions: 1 2 3 4 5 6 7 8 9 10 11 12 13 14 15 16 17 18 19 20 21 22 23
000
FTUS41 KRLX 162347
TAFEKN
TAF
KEKN 162347Z 1700/1724 32008G15KT P6SM SCT008 BKN015
      TEMPO 1700/1704 SCT025
     FM170400 32003KT 4SM BR SCT025
     FM170800 00000KT 1SM BR FEW001 SCT025
     FM171400 15003KT P6SM FEW025 BKN150
     FM171800 18004KT P6SM -RA OVC150
     FM172100 16004KT 2SM -RA BR OVC008=

USA.gov is the U.S. government's official web portal to all federal, state and local government web resources and services.